createdAt,value
2018-11-25T00:00:12.466Z,81.30
2018-11-25T00:02:41.102Z,81.67
2018-11-25T00:05:10.049Z,81.58
2018-11-25T00:07:38.753Z,81.49
2018-11-25T00:10:07.845Z,82.05
2018-11-25T00:12:36.522Z,82.18
2018-11-25T00:15:05.865Z,82.30
2018-11-25T00:17:34.527Z,82.63
2018-11-25T00:20:03.675Z,83.00
2018-11-25T00:22:32.306Z,82.44
2018-11-25T00:25:00.925Z,83.12
2018-11-25T00:27:29.558Z,81.79
2018-11-25T00:29:58.171Z,82.04
2018-11-25T00:32:26.818Z,81.94
2018-11-25T00:34:55.443Z,82.63
2018-11-25T00:37:24.077Z,82.72
2018-11-25T00:39:52.682Z,82.09
2018-11-25T00:42:21.334Z,82.30
2018-11-25T00:44:49.954Z,82.93
2018-11-25T00:47:18.610Z,83.71
2018-11-25T00:49:47.245Z,82.83
2018-11-25T00:52:15.902Z,82.48
2018-11-25T00:54:44.517Z,82.27
2018-11-25T00:57:13.153Z,82.70
2018-11-25T00:59:41.771Z,82.85
2018-11-25T01:02:10.428Z,83.19
2018-11-25T01:04:39.053Z,83.22
2018-11-25T01:07:07.710Z,82.74
2018-11-25T01:09:36.360Z,82.66
2018-11-25T01:12:05.238Z,82.44
2018-11-25T01:14:33.870Z,82.43
2018-11-25T01:17:02.511Z,82.76
2018-11-25T01:19:31.141Z,81.98
2018-11-25T01:21:59.771Z,81.97
2018-11-25T01:24:28.409Z,82.07
2018-11-25T01:26:57.058Z,81.57
2018-11-25T01:29:25.739Z,81.36
2018-11-25T01:31:54.396Z,81.76
2018-11-25T01:34:23.009Z,81.44
2018-11-25T01:36:51.646Z,82.69
2018-11-25T01:39:20.242Z,82.15
2018-11-25T01:41:48.870Z,81.53
2018-11-25T01:44:17.490Z,81.95
2018-11-25T01:46:46.115Z,81.99
2018-11-25T01:49:14.745Z,81.73
2018-11-25T01:51:43.375Z,81.28
2018-11-25T01:54:11.995Z,80.49
2018-11-25T01:56:40.684Z,80.69
2018-11-25T01:59:09.307Z,80.88
2018-11-25T02:01:37.954Z,81.23
2018-11-25T02:04:06.628Z,82.09
2018-11-25T02:06:35.268Z,81.98
2018-11-25T02:09:04.127Z,82.64
2018-11-25T02:11:32.762Z,82.73
2018-11-25T02:14:01.382Z,83.41
2018-11-25T02:16:30.040Z,83.96
2018-11-25T02:18:58.650Z,84.92
2018-11-25T02:21:27.287Z,84.63
2018-11-25T02:23:55.906Z,84.68
2018-11-25T02:26:24.596Z,84.43
2018-11-25T02:28:53.209Z,84.40
2018-11-25T02:31:21.872Z,84.92
2018-11-25T02:33:50.470Z,84.56
2018-11-25T02:36:19.101Z,83.99
2018-11-25T02:38:47.745Z,84.99
2018-11-25T02:41:16.383Z,85.33
2018-11-25T02:43:45.004Z,85.54
2018-11-25T02:46:13.643Z,86.01
2018-11-25T02:48:42.394Z,85.19
2018-11-25T02:51:11.015Z,84.54
2018-11-25T02:53:39.647Z,86.22
2018-11-25T02:56:08.282Z,85.78
2018-11-25T02:58:36.949Z,85.99
2018-11-25T03:01:07.404Z,86.79
2018-11-25T03:03:36.642Z,85.67
2018-11-25T03:06:05.628Z,85.58
2018-11-25T03:08:34.254Z,84.81
2018-11-25T03:11:02.890Z,85.45
2018-11-25T03:13:31.507Z,84.67
2018-11-25T03:16:00.191Z,85.17
2018-11-25T03:18:28.814Z,84.93
2018-11-25T03:20:57.458Z,85.68
2018-11-25T03:23:26.079Z,84.36
2018-11-25T03:25:54.726Z,84.33
2018-11-25T03:28:23.338Z,84.66
2018-11-25T03:30:51.979Z,83.59
2018-11-25T03:33:20.888Z,84.51
2018-11-25T03:35:49.529Z,84.11
2018-11-25T03:38:18.152Z,83.37
2018-11-25T03:40:46.817Z,85.45
2018-11-25T03:43:15.462Z,84.38
2018-11-25T03:45:44.092Z,84.83
2018-11-25T03:48:12.710Z,84.54
2018-11-25T03:50:41.354Z,85.00
2018-11-25T03:53:09.983Z,84.59
2018-11-25T03:55:38.622Z,84.31
2018-11-25T03:58:07.388Z,84.35
2018-11-25T04:00:36.039Z,85.33
2018-11-25T04:03:04.668Z,84.82
2018-11-25T04:05:33.363Z,85.09
2018-11-25T04:08:01.972Z,85.10
2018-11-25T04:10:30.619Z,84.03
2018-11-25T04:12:59.243Z,84.53
2018-11-25T04:15:27.938Z,84.30
2018-11-25T04:17:56.593Z,85.60
2018-11-25T04:20:25.246Z,84.71
2018-11-25T04:22:53.885Z,84.87
2018-11-25T04:25:22.572Z,85.58
2018-11-25T04:27:51.174Z,85.02
2018-11-25T04:30:20.438Z,84.53
2018-11-25T04:32:49.915Z,85.48
2018-11-25T04:35:18.553Z,84.73
2018-11-25T04:37:47.184Z,84.30
2018-11-25T04:40:16.601Z,83.61
2018-11-25T04:42:45.243Z,84.43
2018-11-25T04:45:14.587Z,84.25
2018-11-25T04:47:43.416Z,84.78
2018-11-25T04:50:14.910Z,84.54
2018-11-25T04:52:43.588Z,84.42
2018-11-25T04:55:12.283Z,84.38
2018-11-25T04:57:41.030Z,83.61
2018-11-25T05:00:13.098Z,83.45
2018-11-25T05:02:42.025Z,83.87
2018-11-25T05:05:11.666Z,84.17
2018-11-25T05:07:40.370Z,83.71
2018-11-25T05:10:12.139Z,84.05
2018-11-25T05:12:40.757Z,84.31
2018-11-25T05:15:17.838Z,84.72
2018-11-25T05:17:46.502Z,84.13
2018-11-25T05:20:15.654Z,84.40
2018-11-25T05:22:44.307Z,84.63
2018-11-25T05:25:14.014Z,84.16
2018-11-25T05:27:42.670Z,84.46
2018-11-25T05:30:13.427Z,84.06
2018-11-25T05:32:42.105Z,83.45
2018-11-25T05:35:11.854Z,84.20
2018-11-25T05:37:40.471Z,83.93
2018-11-25T05:40:11.671Z,83.57
2018-11-25T05:42:40.323Z,83.62
2018-11-25T05:45:15.665Z,84.02
2018-11-25T05:47:44.325Z,84.68
2018-11-25T05:50:14.675Z,83.69
2018-11-25T05:52:43.362Z,83.99
2018-11-25T05:55:12.526Z,84.28
2018-11-25T05:57:41.439Z,83.76
2018-11-25T06:00:15.290Z,83.50
2018-11-25T06:02:44.001Z,83.28
2018-11-25T06:05:12.751Z,84.01
2018-11-25T06:07:41.437Z,83.89
2018-11-25T06:10:11.953Z,83.73
2018-11-25T06:12:40.768Z,83.08
2018-11-25T06:15:13.100Z,83.72
2018-11-25T06:17:41.792Z,84.55
2018-11-25T06:20:11.793Z,83.57
2018-11-25T06:22:40.621Z,83.61
2018-11-25T06:25:10.607Z,84.04
2018-11-25T06:27:39.270Z,84.48
2018-11-25T06:30:11.676Z,83.17
2018-11-25T06:32:40.368Z,83.57
2018-11-25T06:35:10.326Z,83.03
2018-11-25T06:37:38.977Z,83.67
2018-11-25T06:40:12.706Z,83.71
2018-11-25T06:42:41.394Z,82.90
2018-11-25T06:45:15.580Z,82.75
2018-11-25T06:47:44.264Z,81.84
2018-11-25T06:50:13.337Z,83.13
2018-11-25T06:52:42.018Z,83.87
2018-11-25T06:55:11.826Z,82.87
2018-11-25T06:57:40.456Z,83.60
2018-11-25T07:00:17.338Z,83.60
2018-11-25T07:02:46.070Z,85.49
2018-11-25T07:05:14.874Z,85.23
2018-11-25T07:07:43.536Z,84.77
2018-11-25T07:10:15.843Z,84.43
2018-11-25T07:12:44.669Z,83.55
2018-11-25T07:15:14.447Z,84.03
2018-11-25T07:17:43.079Z,84.21
2018-11-25T07:20:12.689Z,82.47
2018-11-25T07:22:41.367Z,82.42
2018-11-25T07:25:13.209Z,83.02
2018-11-25T07:27:41.860Z,82.50
2018-11-25T07:30:25.874Z,82.90
2018-11-25T07:32:54.682Z,83.07
2018-11-25T07:35:24.197Z,83.01
2018-11-25T07:37:53.267Z,82.74
2018-11-25T07:40:22.525Z,83.93
2018-11-25T07:42:51.216Z,84.32
2018-11-25T07:45:20.842Z,83.72
2018-11-25T07:47:49.537Z,82.48
2018-11-25T07:50:18.197Z,84.55
2018-11-25T07:52:47.618Z,84.20
2018-11-25T07:55:18.094Z,83.27
2018-11-25T07:57:47.342Z,83.35
2018-11-25T08:00:20.591Z,83.21
2018-11-25T08:02:49.355Z,83.16
2018-11-25T08:05:20.799Z,83.61
2018-11-25T08:07:49.479Z,83.20
2018-11-25T08:10:18.136Z,82.83
2018-11-25T08:12:47.122Z,82.90
2018-11-25T08:15:17.413Z,82.82
2018-11-25T08:17:46.066Z,83.42
2018-11-25T08:20:17.557Z,82.92
2018-11-25T08:22:46.178Z,82.54
2018-11-25T08:25:16.759Z,82.19
2018-11-25T08:27:45.499Z,81.19
2018-11-25T08:30:18.030Z,81.52
2018-11-25T08:32:46.726Z,81.76
2018-11-25T08:35:15.984Z,81.69
2018-11-25T08:37:44.662Z,81.05
2018-11-25T08:40:16.138Z,81.84
2018-11-25T08:42:44.743Z,80.86
2018-11-25T08:45:14.002Z,81.26
2018-11-25T08:47:42.710Z,80.66
2018-11-25T08:50:12.998Z,80.49
2018-11-25T08:52:42.010Z,81.24
2018-11-25T08:55:13.770Z,81.08
2018-11-25T08:57:42.462Z,81.79
2018-11-25T09:00:15.163Z,80.04
2018-11-25T09:02:43.922Z,80.82
2018-11-25T09:05:13.559Z,80.86
2018-11-25T09:07:42.271Z,80.27
2018-11-25T09:10:16.722Z,80.02
2018-11-25T09:12:47.337Z,79.79
2018-11-25T09:15:17.036Z,80.18
2018-11-25T09:17:45.703Z,79.08
2018-11-25T09:20:16.293Z,78.81
2018-11-25T09:22:45.032Z,79.72
2018-11-25T09:25:16.604Z,79.65
2018-11-25T09:27:45.298Z,80.51
2018-11-25T09:30:23.660Z,80.25
2018-11-25T09:32:52.314Z,80.55
2018-11-25T09:35:20.977Z,80.72
2018-11-25T09:37:49.662Z,79.44
2018-11-25T09:40:19.341Z,79.19
2018-11-25T09:42:47.984Z,79.39
2018-11-25T09:45:17.566Z,79.44
2018-11-25T09:47:46.338Z,79.73
2018-11-25T09:50:17.791Z,80.06
2018-11-25T09:52:46.459Z,78.86
2018-11-25T09:55:17.029Z,78.23
2018-11-25T09:57:50.727Z,78.46
2018-11-25T10:00:21.327Z,79.13
2018-11-25T10:02:49.995Z,78.03
2018-11-25T10:05:18.699Z,77.69
2018-11-25T10:07:47.419Z,77.62
2018-11-25T10:10:17.142Z,76.64
2018-11-25T10:12:45.827Z,76.48
2018-11-25T10:15:16.368Z,77.06
2018-11-25T10:17:45.038Z,76.77
2018-11-25T10:20:17.531Z,76.99
2018-11-25T10:22:46.221Z,77.80
2018-11-25T10:25:15.546Z,76.86
2018-11-25T10:27:44.175Z,76.13
2018-11-25T10:30:14.082Z,76.01
2018-11-25T10:32:42.892Z,75.97
2018-11-25T10:35:11.911Z,75.66
2018-11-25T10:37:40.546Z,76.61
2018-11-25T10:40:16.720Z,75.58
2018-11-25T10:42:45.360Z,75.84
2018-11-25T10:45:18.740Z,75.43
2018-11-25T10:47:47.628Z,75.14
2018-11-25T10:50:18.193Z,75.14
2018-11-25T10:52:46.910Z,74.53
2018-11-25T10:55:16.504Z,74.79
2018-11-25T10:57:46.042Z,75.27
2018-11-25T11:00:22.754Z,73.87
2018-11-25T11:02:56.884Z,74.18
2018-11-25T11:05:30.912Z,73.29
2018-11-25T11:07:59.731Z,74.05
2018-11-25T11:10:28.409Z,73.61
2018-11-25T11:12:57.023Z,72.99
2018-11-25T11:15:25.674Z,72.78
2018-11-25T11:17:54.301Z,72.58
2018-11-25T11:20:23.111Z,72.29
2018-11-25T11:22:51.796Z,73.03
2018-11-25T11:25:20.909Z,72.70
2018-11-25T11:27:49.515Z,71.30
2018-11-25T11:30:18.154Z,71.17
2018-11-25T11:32:48.222Z,71.67
2018-11-25T11:35:16.873Z,72.97
2018-11-25T11:37:45.511Z,72.77
2018-11-25T11:40:15.044Z,71.41
2018-11-25T11:42:43.662Z,72.74
2018-11-25T11:45:13.262Z,71.25
2018-11-25T11:47:42.511Z,70.66
2018-11-25T11:50:13.273Z,72.34
2018-11-25T11:52:41.938Z,72.05
2018-11-25T11:55:11.751Z,72.42
2018-11-25T11:57:40.926Z,72.70
2018-11-25T12:00:18.563Z,73.63
2018-11-25T12:02:47.207Z,73.72
2018-11-25T12:05:15.890Z,75.20
2018-11-25T12:07:44.538Z,75.31
2018-11-25T12:10:14.202Z,74.44
2018-11-25T12:12:42.844Z,75.66
2018-11-25T12:15:15.030Z,75.17
2018-11-25T12:17:43.668Z,75.67
2018-11-25T12:20:12.490Z,76.85
2018-11-25T12:22:41.173Z,76.70
2018-11-25T12:25:13.935Z,77.45
2018-11-25T12:27:42.571Z,76.24
2018-11-25T12:30:12.332Z,75.96
2018-11-25T12:32:41.226Z,75.16
2018-11-25T12:35:10.921Z,74.88
2018-11-25T12:37:39.546Z,77.23
2018-11-25T12:40:10.691Z,76.27
2018-11-25T12:42:39.481Z,75.54
2018-11-25T12:45:10.101Z,75.31
2018-11-25T12:47:38.732Z,74.47
2018-11-25T12:50:10.245Z,75.52
2018-11-25T12:52:38.889Z,75.75
2018-11-25T12:55:10.194Z,75.72
2018-11-25T12:57:38.830Z,75.33
2018-11-25T13:00:25.633Z,75.59
2018-11-25T13:02:54.262Z,74.93
2018-11-25T13:05:22.931Z,75.25
2018-11-25T13:07:51.579Z,74.88
2018-11-25T13:10:20.211Z,75.56
2018-11-25T13:12:48.861Z,74.66
2018-11-25T13:15:17.483Z,74.24
2018-11-25T13:17:46.134Z,74.33
2018-11-25T13:20:15.518Z,74.94
2018-11-25T13:22:44.171Z,73.73
2018-11-25T13:25:16.391Z,74.51
2018-11-25T13:27:45.102Z,73.93
2018-11-25T13:30:21.647Z,73.30
2018-11-25T13:32:51.282Z,73.07
2018-11-25T13:35:19.908Z,72.43
2018-11-25T13:37:48.550Z,72.56
2018-11-25T13:40:17.498Z,73.00
2018-11-25T13:42:46.159Z,74.21
2018-11-25T13:45:14.806Z,73.07
2018-11-25T13:47:43.446Z,72.67
2018-11-25T13:50:12.728Z,72.62
2018-11-25T13:52:41.379Z,72.18
2018-11-25T13:55:13.066Z,71.54
2018-11-25T13:57:41.762Z,71.81
2018-11-25T14:00:18.534Z,72.30
2018-11-25T14:02:47.207Z,72.42
2018-11-25T14:05:16.080Z,72.66
2018-11-25T14:07:44.789Z,73.43
2018-11-25T14:10:17.342Z,72.65
2018-11-25T14:12:45.960Z,72.75
2018-11-25T14:15:14.590Z,73.39
2018-11-25T14:17:43.255Z,73.35
2018-11-25T14:20:11.874Z,72.83
2018-11-25T14:22:40.502Z,73.29
2018-11-25T14:25:11.896Z,72.70
2018-11-25T14:27:40.527Z,73.32
2018-11-25T14:30:13.638Z,73.58
2018-11-25T14:32:42.104Z,72.80
2018-11-25T14:35:12.228Z,72.88
2018-11-25T14:37:40.860Z,73.34
2018-11-25T14:40:11.905Z,74.70
2018-11-25T14:42:40.539Z,73.24
2018-11-25T14:45:10.851Z,73.51
2018-11-25T14:47:39.538Z,73.73
2018-11-25T14:50:15.038Z,73.41
2018-11-25T14:52:44.639Z,73.42
2018-11-25T14:55:14.045Z,73.42
2018-11-25T14:57:42.760Z,74.34
2018-11-25T15:00:21.440Z,73.75
2018-11-25T15:02:51.609Z,76.09
2018-11-25T15:05:29.707Z,74.76
2018-11-25T15:07:58.402Z,74.55
2018-11-25T15:10:27.051Z,75.06
2018-11-25T15:12:55.679Z,74.83
2018-11-25T15:15:24.354Z,75.07
2018-11-25T15:17:53.008Z,76.51
2018-11-25T15:20:22.352Z,76.64
2018-11-25T15:22:52.791Z,74.97
2018-11-25T15:25:25.047Z,74.63
2018-11-25T15:27:53.678Z,75.58
2018-11-25T15:30:22.566Z,77.31
2018-11-25T15:32:51.222Z,75.81
2018-11-25T15:35:20.903Z,76.83
2018-11-25T15:37:50.988Z,75.57
2018-11-25T15:40:22.527Z,76.55
2018-11-25T15:42:51.188Z,76.31
2018-11-25T15:45:19.937Z,76.60
2018-11-25T15:47:51.522Z,76.55
2018-11-25T15:50:24.674Z,75.79
2018-11-25T15:52:53.327Z,76.68
2018-11-25T15:55:22.252Z,76.42
2018-11-25T15:57:51.720Z,75.42
2018-11-25T16:00:20.775Z,76.01
2018-11-25T16:02:49.489Z,76.45
2018-11-25T16:05:19.655Z,75.81
2018-11-25T16:07:48.359Z,76.69
2018-11-25T16:10:17.017Z,76.18
2018-11-25T16:12:47.023Z,75.99
2018-11-25T16:15:16.899Z,75.91
2018-11-25T16:17:45.626Z,75.24
2018-11-25T16:20:16.333Z,76.10
2018-11-25T16:22:45.323Z,75.86
2018-11-25T16:25:17.754Z,76.50
2018-11-25T16:27:46.839Z,75.36
2018-11-25T16:30:15.459Z,75.46
2018-11-25T16:32:44.095Z,76.51
2018-11-25T16:35:12.730Z,75.88
2018-11-25T16:37:41.966Z,76.57
2018-11-25T16:40:12.166Z,75.76
2018-11-25T16:42:41.125Z,76.01
2018-11-25T16:45:12.220Z,76.47
2018-11-25T16:47:40.884Z,75.73
2018-11-25T16:50:24.518Z,76.26
2018-11-25T16:52:44.272Z,76.05
2018-11-25T16:55:13.687Z,75.51
2018-11-25T16:57:42.908Z,75.81
2018-11-25T17:00:18.258Z,75.21
2018-11-25T17:02:46.924Z,75.70
2018-11-25T17:05:18.739Z,75.11
2018-11-25T17:07:48.994Z,76.03
2018-11-25T17:10:17.623Z,75.81
2018-11-25T17:12:46.261Z,75.87
2018-11-25T17:15:16.571Z,76.58
2018-11-25T17:17:48.032Z,75.98
2018-11-25T17:20:16.655Z,75.18
2018-11-25T17:22:45.351Z,75.21
2018-11-25T17:25:14.526Z,75.09
2018-11-25T17:27:43.511Z,75.45
2018-11-25T17:30:14.086Z,74.26
2018-11-25T17:32:43.225Z,75.15
2018-11-25T17:35:17.118Z,74.13
2018-11-25T17:37:45.750Z,74.52
2018-11-25T17:40:14.400Z,74.80
2018-11-25T17:42:43.050Z,74.58
2018-11-25T17:45:12.728Z,74.32
2018-11-25T17:47:41.676Z,74.15
2018-11-25T17:50:22.014Z,74.93
2018-11-25T17:52:50.719Z,74.67
2018-11-25T17:55:20.315Z,75.12
2018-11-25T17:57:48.972Z,75.15
2018-11-25T18:00:24.049Z,74.38
2018-11-25T18:02:52.671Z,75.30
2018-11-25T18:05:21.297Z,74.59
2018-11-25T18:07:49.958Z,74.77
2018-11-25T18:10:18.631Z,74.95
2018-11-25T18:12:47.271Z,74.53
2018-11-25T18:15:18.244Z,74.36
2018-11-25T18:17:51.250Z,73.69
2018-11-25T18:20:19.879Z,74.81
2018-11-25T18:22:49.324Z,75.11
2018-11-25T18:25:17.943Z,75.22
2018-11-25T18:27:46.586Z,74.91
2018-11-25T18:30:16.806Z,74.06
2018-11-25T18:32:45.951Z,74.06
2018-11-25T18:35:14.573Z,74.19
2018-11-25T18:37:43.202Z,74.23
2018-11-25T18:40:13.119Z,73.96
2018-11-25T18:42:42.366Z,74.14
2018-11-25T18:45:12.490Z,73.44
2018-11-25T18:47:43.846Z,74.05
2018-11-25T18:50:13.648Z,73.80
2018-11-25T18:52:42.938Z,73.96
2018-11-25T18:55:10.313Z,73.76
2018-11-25T18:57:38.977Z,73.70
2018-11-25T19:00:11.815Z,73.54
2018-11-25T19:02:43.533Z,74.35
2018-11-25T19:05:12.199Z,74.01
2018-11-25T19:07:40.876Z,74.82
2018-11-25T19:10:13.919Z,74.37
2018-11-25T19:12:44.212Z,74.94
2018-11-25T19:15:12.488Z,74.91
2018-11-25T19:17:41.267Z,74.24
2018-11-25T19:20:40.591Z,74.88
2018-11-25T19:23:09.311Z,74.83
2018-11-25T19:25:37.950Z,74.53
2018-11-25T19:28:08.962Z,75.07
2018-11-25T19:30:37.614Z,73.51
2018-11-25T19:33:07.686Z,73.31
2018-11-25T19:35:36.312Z,74.08
2018-11-25T19:38:05.023Z,74.10
2018-11-25T19:40:33.790Z,73.82
2018-11-25T19:43:02.457Z,73.10
2018-11-25T19:45:31.082Z,72.72
2018-11-25T19:47:59.736Z,73.47
2018-11-25T19:50:33.419Z,72.70
2018-11-25T19:53:02.072Z,72.65
2018-11-25T19:55:30.739Z,72.90
2018-11-25T19:57:59.373Z,72.37
2018-11-25T20:00:28.261Z,72.52
2018-11-25T20:02:56.940Z,72.36
2018-11-25T20:05:25.566Z,71.94
2018-11-25T20:07:54.243Z,72.09
2018-11-25T20:10:24.163Z,71.71
2018-11-25T20:12:54.186Z,71.89
2018-11-25T20:15:22.863Z,71.63
2018-11-25T20:17:54.346Z,72.31
2018-11-25T20:20:21.600Z,71.91
2018-11-25T20:22:50.540Z,72.69
2018-11-25T20:25:19.460Z,71.97
2018-11-25T20:27:51.143Z,71.73
2018-11-25T20:30:23.601Z,71.66
2018-11-25T20:32:57.523Z,71.56
2018-11-25T20:35:26.298Z,72.29
2018-11-25T20:38:00.181Z,71.35
2018-11-25T20:40:28.850Z,71.53
2018-11-25T20:42:58.215Z,72.48
2018-11-25T20:45:38.558Z,71.58
2018-11-25T20:48:01.194Z,71.94
2018-11-25T20:50:29.837Z,72.39
2018-11-25T20:53:03.583Z,72.35
2018-11-25T20:55:32.224Z,72.03
2018-11-25T20:58:00.938Z,71.88
2018-11-25T21:00:30.500Z,72.52
2018-11-25T21:02:59.133Z,72.12
2018-11-25T21:05:27.796Z,71.79
2018-11-25T21:07:56.489Z,71.51
2018-11-25T21:10:26.174Z,72.26
2018-11-25T21:12:54.854Z,72.08
2018-11-25T21:15:23.474Z,71.47
2018-11-25T21:17:52.096Z,70.83
2018-11-25T21:20:23.183Z,71.62
2018-11-25T21:22:51.819Z,72.10
2018-11-25T21:25:21.664Z,71.31
2018-11-25T21:27:50.435Z,71.45
2018-11-25T21:30:27.560Z,71.59
2018-11-25T21:32:57.398Z,70.10
2018-11-25T21:35:26.058Z,70.87
2018-11-25T21:37:54.669Z,71.04
2018-11-25T21:40:24.342Z,71.32
2018-11-25T21:42:59.458Z,72.06
2018-11-25T21:45:28.079Z,70.88
2018-11-25T21:47:57.991Z,71.68
2018-11-25T21:50:26.619Z,71.64
2018-11-25T21:52:55.231Z,71.88
2018-11-25T21:55:24.195Z,72.43
2018-11-25T21:57:52.811Z,71.09
2018-11-25T22:00:22.611Z,71.14
2018-11-25T22:02:51.240Z,71.52
2018-11-25T22:05:20.056Z,71.56
2018-11-25T22:07:48.611Z,71.48
2018-11-25T22:10:18.360Z,71.31
2018-11-25T22:12:47.206Z,71.83
2018-11-25T22:15:17.625Z,71.29
2018-11-25T22:17:46.291Z,71.44
2018-11-25T22:20:15.620Z,72.17
2018-11-25T22:22:44.270Z,71.35
2018-11-25T22:25:13.997Z,71.30
2018-11-25T22:27:42.654Z,71.11
2018-11-25T22:30:16.023Z,71.81
2018-11-25T22:32:44.675Z,71.83
2018-11-25T22:35:14.321Z,71.74
2018-11-25T22:37:43.016Z,71.31
2018-11-25T22:40:12.765Z,72.55
2018-11-25T22:42:42.153Z,71.13
2018-11-25T22:45:12.679Z,71.13
2018-11-25T22:47:41.321Z,72.02
2018-11-25T22:50:11.342Z,72.45
2018-11-25T22:52:39.998Z,71.11
2018-11-25T22:55:14.870Z,72.27
2018-11-25T22:57:43.612Z,71.50
2018-11-25T23:00:43.770Z,71.46
2018-11-25T23:03:12.379Z,71.59
2018-11-25T23:05:51.961Z,71.48
2018-11-25T23:08:20.586Z,72.13
2018-11-25T23:10:49.238Z,71.69
2018-11-25T23:13:17.881Z,72.22
2018-11-25T23:15:46.523Z,71.41
2018-11-25T23:18:15.134Z,71.09
2018-11-25T23:20:43.756Z,71.24
2018-11-25T23:23:12.367Z,71.60
2018-11-25T23:25:41.002Z,70.95
2018-11-25T23:28:09.636Z,71.45
2018-11-25T23:30:38.274Z,71.26
2018-11-25T23:33:06.919Z,71.68
2018-11-25T23:35:35.683Z,70.68
2018-11-25T23:38:04.295Z,73.02
2018-11-25T23:40:32.954Z,72.53
2018-11-25T23:43:01.570Z,72.45
2018-11-25T23:45:30.193Z,72.97
2018-11-25T23:47:58.828Z,72.16
2018-11-25T23:50:27.513Z,71.76
2018-11-25T23:52:56.166Z,72.34
2018-11-25T23:55:24.932Z,72.24
2018-11-25T23:57:53.555Z,73.04
